Airfield :
LOGIN :

Register | Disclaimer

   EN    FR    IT 

 










Legend :    VFR   Marginal VFR   IFR   Intensive IFR   Very Intensive IFR
Visi :
Ceiling :
>= 8 km
>= 3000ft
5 to 8 km
1000 to 3000 ft
1500m to 5 km
500 to 1000 ft
800 to 1500m
200 to 500 ft
< 800m
< 200 ft
Symbols :   Thunderstorms  Fog  Heavy snow  Heavy precipitations  Wind > 20 kt
SIGMETs :     Misc.  Thunderstorms  Icing  Turbulence  Mountain Waves  Volcanic Ashes






- Airport Elevation : 215 ft
- IATA code : ABZ


EGPD - Aberdeen / Dyce

CURRENT METAR :
  • 261820Z AUTO 12009KT 100V160 9999 NCD 14/04 Q1035

EXPIRED METARs :
  • 261750Z AUTO 13011KT 110V170 9999 NCD 14/05 Q1035 NOSIG
  • 261720Z AUTO 13010KT 090V160 9999 NCD 14/05 Q1035 NOSIG
  • 261650Z AUTO 13010KT 9999 NCD 14/05 Q1035 NOSIG
  • 261620Z AUTO 14012KT 100V160 9999 NCD 15/05 Q1035 NOSIG
  • 261550Z AUTO 14012KT 9999 NCD 15/06 Q1035

TAF TAF EGPD
Valid from the 26 at 18:00 until the 27 at 18:00 UTC


261658Z 2618/2718 13009KT 9999 FEW040



MET'MAP, your aeronautical weather chart ! - Copyright ORBIFLY December 2007 - Disclaimer

ORBIFLY MET'MAP TEAM :

Programming & Development : Alexandra Zaïnal
Concept & original design : Baudouin d'Aumeries
Assistance for programming : Marc-Olivier Méhu
Technical & hardware support : Manuel Goepfert

Contact : metmap@orbifly.com




SOURCES & CREDITS :

   NOAA